createdAt,value
2023-11-08T00:00:56.561Z,3.35
2023-11-08T00:01:55.748Z,3.95
2023-11-08T00:02:52.798Z,3.30
2023-11-08T00:03:49.626Z,3.10
2023-11-08T00:04:46.363Z,3.60
2023-11-08T00:05:43.093Z,3.50
2023-11-08T00:06:40.420Z,3.80
2023-11-08T00:07:37.337Z,3.15
2023-11-08T00:08:34.017Z,3.42
2023-11-08T00:09:30.753Z,3.90
2023-11-08T00:10:27.893Z,3.63
2023-11-08T00:11:24.911Z,3.47
2023-11-08T00:12:21.800Z,3.50
2023-11-08T00:13:21.481Z,4.32
2023-11-08T00:14:18.170Z,4.25
2023-11-08T00:15:15.001Z,3.50
2023-11-08T00:16:12.769Z,3.88
2023-11-08T00:17:09.548Z,2.90
2023-11-08T00:18:07.024Z,3.50
2023-11-08T00:19:04.274Z,3.55
2023-11-08T00:20:00.948Z,3.08
2023-11-08T00:20:57.591Z,3.20
2023-11-08T00:21:54.296Z,3.50
2023-11-08T00:22:51.002Z,3.45
2023-11-08T00:23:47.601Z,3.13
2023-11-08T00:24:44.458Z,3.83
2023-11-08T00:25:41.163Z,3.83
2023-11-08T00:26:37.777Z,4.20
2023-11-08T00:27:34.562Z,3.30
2023-11-08T00:28:31.251Z,3.20
2023-11-08T00:29:28.693Z,3.35
2023-11-08T00:30:25.443Z,3.40
2023-11-08T00:31:22.059Z,3.30
2023-11-08T00:32:22.881Z,3.20
2023-11-08T00:33:19.833Z,3.85
2023-11-08T00:34:17.624Z,3.30
2023-11-08T00:35:14.919Z,3.28
2023-11-08T00:36:11.583Z,3.45
2023-11-08T00:37:10.561Z,3.63
2023-11-08T00:38:07.310Z,3.30
2023-11-08T00:39:06.921Z,3.65
2023-11-08T00:40:05.492Z,3.80
2023-11-08T00:41:02.135Z,3.72
2023-11-08T00:41:58.809Z,3.30
2023-11-08T00:42:55.707Z,3.35
2023-11-08T00:43:57.435Z,3.15
2023-11-08T00:44:54.149Z,3.70
2023-11-08T00:45:51.832Z,3.45
2023-11-08T00:46:48.514Z,3.45
2023-11-08T00:47:45.417Z,3.80
2023-11-08T00:48:42.833Z,4.03
2023-11-08T00:49:39.511Z,3.20
2023-11-08T00:50:36.180Z,3.65
2023-11-08T00:51:33.419Z,3.25
2023-11-08T00:52:30.182Z,3.28
2023-11-08T00:53:26.903Z,3.35
2023-11-08T00:54:23.681Z,3.28
2023-11-08T00:55:20.516Z,3.15
2023-11-08T00:56:17.610Z,3.50
2023-11-08T00:57:14.291Z,3.78
2023-11-08T00:58:11.094Z,3.63
2023-11-08T00:59:07.770Z,4.50
2023-11-08T01:00:09.129Z,3.63
2023-11-08T01:01:06.967Z,3.50
2023-11-08T01:02:04.633Z,3.75
2023-11-08T01:03:01.987Z,3.88
2023-11-08T01:03:59.128Z,3.83
2023-11-08T01:04:56.147Z,3.80
2023-11-08T01:05:52.939Z,3.45
2023-11-08T01:06:49.689Z,3.30
2023-11-08T01:07:46.471Z,3.33
2023-11-08T01:08:43.221Z,3.72
2023-11-08T01:09:39.952Z,3.40
2023-11-08T01:10:39.561Z,3.60
2023-11-08T01:11:37.071Z,4.40
2023-11-08T01:12:35.130Z,3.75
2023-11-08T01:13:32.628Z,3.30
2023-11-08T01:14:29.715Z,4.60
2023-11-08T01:15:26.647Z,8.18
2023-11-08T01:16:23.349Z,8.80
2023-11-08T01:17:20.176Z,8.68
2023-11-08T01:18:17.683Z,8.05
2023-11-08T01:19:15.039Z,7.80
2023-11-08T01:20:12.525Z,7.65
2023-11-08T01:21:09.284Z,6.82
2023-11-08T01:22:06.799Z,6.78
2023-11-08T01:23:04.263Z,6.43
2023-11-08T01:24:01.767Z,7.07
2023-11-08T01:24:58.483Z,7.60
2023-11-08T01:25:55.400Z,7.35
2023-11-08T01:26:52.108Z,7.60
2023-11-08T01:27:48.984Z,6.03
2023-11-08T01:28:46.428Z,5.65
2023-11-08T01:29:43.201Z,5.35
2023-11-08T01:30:40.137Z,6.68
2023-11-08T01:31:36.801Z,5.50
2023-11-08T01:32:33.560Z,5.00
2023-11-08T01:33:30.616Z,5.07
2023-11-08T01:34:27.426Z,5.47
2023-11-08T01:35:24.243Z,5.03
2023-11-08T01:36:21.008Z,5.05
2023-11-08T01:37:17.847Z,4.88
2023-11-08T01:38:14.496Z,4.72
2023-11-08T01:39:11.289Z,5.50
2023-11-08T01:40:09.341Z,4.82
2023-11-08T01:41:06.170Z,4.82
2023-11-08T01:42:03.396Z,4.78
2023-11-08T01:43:00.127Z,4.63
2023-11-08T01:44:01.292Z,4.72
2023-11-08T01:44:58.011Z,4.50
2023-11-08T01:46:05.254Z,4.97
2023-11-08T01:47:04.058Z,5.45
2023-11-08T01:48:00.872Z,4.93
2023-11-08T01:49:00.172Z,4.35
2023-11-08T01:49:57.043Z,4.88
2023-11-08T01:50:53.866Z,4.47
2023-11-08T01:51:50.998Z,4.35
2023-11-08T01:52:47.882Z,4.53
2023-11-08T01:53:44.812Z,3.83
2023-11-08T01:54:46.564Z,3.50
2023-11-08T01:55:43.738Z,4.45
2023-11-08T01:56:45.538Z,4.30
2023-11-08T01:57:42.605Z,4.07
2023-11-08T01:58:39.881Z,4.50
2023-11-08T01:59:37.002Z,4.70
2023-11-08T02:00:36.807Z,4.63
2023-11-08T02:01:33.603Z,4.15
2023-11-08T02:02:30.398Z,4.25
2023-11-08T02:03:28.998Z,4.47
2023-11-08T02:04:27.702Z,4.55
2023-11-08T02:05:25.819Z,4.43
2023-11-08T02:06:23.225Z,4.05
2023-11-08T02:07:19.931Z,3.97
2023-11-08T02:08:19.926Z,3.92
2023-11-08T02:09:18.208Z,4.00
2023-11-08T02:10:15.725Z,3.85
2023-11-08T02:11:14.216Z,3.95
2023-11-08T02:12:12.892Z,4.32
2023-11-08T02:13:09.712Z,3.72
2023-11-08T02:14:06.709Z,4.43
2023-11-08T02:15:05.302Z,3.75
2023-11-08T02:16:03.181Z,4.55
2023-11-08T02:16:59.883Z,3.80
2023-11-08T02:17:56.608Z,3.80
2023-11-08T02:18:53.369Z,3.58
2023-11-08T02:19:50.124Z,3.42
2023-11-08T02:20:47.109Z,4.43
2023-11-08T02:21:43.804Z,4.10
2023-11-08T02:22:40.472Z,3.85
2023-11-08T02:23:37.716Z,3.58
2023-11-08T02:24:34.502Z,3.97
2023-11-08T02:25:31.636Z,3.38
2023-11-08T02:26:28.308Z,3.05
2023-11-08T02:27:25.021Z,4.07
2023-11-08T02:28:22.510Z,3.83
2023-11-08T02:29:21.373Z,4.20
2023-11-08T02:30:18.716Z,4.07
2023-11-08T02:31:17.119Z,4.00
2023-11-08T02:32:13.823Z,3.75
2023-11-08T02:33:10.796Z,3.92
2023-11-08T02:34:10.851Z,3.58
2023-11-08T02:35:07.995Z,70.88
2023-11-08T02:36:05.250Z,85.82
2023-11-08T02:37:02.118Z,37.08
2023-11-08T02:37:58.758Z,19.77
2023-11-08T02:38:57.108Z,11.30
2023-11-08T02:39:54.029Z,9.48
2023-11-08T02:40:50.872Z,9.77
2023-11-08T02:41:48.994Z,10.02
2023-11-08T02:42:47.074Z,11.48
2023-11-08T02:43:45.063Z,8.40
2023-11-08T02:44:41.718Z,48.63
2023-11-08T02:45:38.849Z,42.95
2023-11-08T02:46:36.361Z,10.02
2023-11-08T02:47:33.096Z,10.65
2023-11-08T02:48:30.042Z,8.63
2023-11-08T02:49:32.476Z,6.55
2023-11-08T02:51:29.862Z,4.65
2023-11-08T02:52:26.895Z,5.55
2023-11-08T02:53:23.645Z,6.70
2023-11-08T02:54:20.327Z,6.95
2023-11-08T02:55:17.103Z,5.78
2023-11-08T02:56:14.270Z,5.65
2023-11-08T02:57:10.995Z,4.47
2023-11-08T02:58:07.816Z,4.57
2023-11-08T02:59:04.534Z,3.67
2023-11-08T03:00:04.929Z,4.78
2023-11-08T03:01:01.608Z,4.82
2023-11-08T03:01:58.755Z,3.72
2023-11-08T03:02:56.224Z,3.55
2023-11-08T03:03:52.998Z,3.92
2023-11-08T03:04:49.884Z,3.47
2023-11-08T03:05:46.715Z,4.13
2023-11-08T03:06:44.985Z,4.03
2023-11-08T03:07:43.259Z,4.18
2023-11-08T03:08:40.041Z,3.80
2023-11-08T03:09:36.805Z,3.85
2023-11-08T03:10:35.793Z,3.90
2023-11-08T03:11:32.434Z,4.13
2023-11-08T03:12:30.171Z,3.70
2023-11-08T03:13:27.118Z,3.53
2023-11-08T03:14:23.953Z,3.72
2023-11-08T03:15:24.978Z,4.07
2023-11-08T03:16:22.321Z,4.22
2023-11-08T03:17:19.621Z,4.05
2023-11-08T03:18:19.159Z,3.67
2023-11-08T03:19:15.972Z,4.00
2023-11-08T03:20:16.914Z,4.03
2023-11-08T03:21:13.626Z,3.53
2023-11-08T03:22:13.944Z,3.72
2023-11-08T03:23:10.664Z,4.38
2023-11-08T03:24:07.641Z,4.18
2023-11-08T03:25:04.589Z,3.75
2023-11-08T03:26:01.241Z,3.50
2023-11-08T03:26:58.009Z,4.25
2023-11-08T03:27:54.646Z,3.58
2023-11-08T03:28:51.347Z,3.47
2023-11-08T03:29:48.006Z,3.65
2023-11-08T03:30:45.266Z,3.80
2023-11-08T03:31:41.917Z,3.83
2023-11-08T03:32:38.712Z,4.10
2023-11-08T03:33:37.004Z,3.45
2023-11-08T03:34:34.503Z,3.70
2023-11-08T03:35:31.223Z,3.40
2023-11-08T03:36:30.193Z,3.55
2023-11-08T03:37:27.018Z,4.15
2023-11-08T03:38:23.639Z,4.43
2023-11-08T03:39:20.504Z,4.35
2023-11-08T03:40:18.636Z,3.35
2023-11-08T03:41:16.014Z,3.90
2023-11-08T03:42:12.714Z,3.80
2023-11-08T03:43:09.413Z,3.50
2023-11-08T03:44:06.994Z,4.05
2023-11-08T03:45:05.362Z,5.20
2023-11-08T03:46:02.071Z,3.97
2023-11-08T03:46:58.891Z,3.83
2023-11-08T03:47:55.595Z,3.85
2023-11-08T03:48:56.216Z,3.90
2023-11-08T03:49:53.001Z,3.60
2023-11-08T03:50:49.678Z,3.80
2023-11-08T03:51:46.337Z,4.80
2023-11-08T03:52:43.115Z,9.30
2023-11-08T03:53:39.827Z,12.10
2023-11-08T03:54:36.605Z,4.15
2023-11-08T03:55:34.170Z,4.78
2023-11-08T03:56:31.318Z,5.90
2023-11-08T03:57:29.521Z,4.00
2023-11-08T03:58:26.410Z,3.75
2023-11-08T03:59:23.100Z,3.88
2023-11-08T04:00:19.990Z,4.07
2023-11-08T04:01:17.545Z,3.42
2023-11-08T04:02:14.263Z,3.78
2023-11-08T04:03:10.919Z,4.03
2023-11-08T04:04:07.605Z,3.97
2023-11-08T04:05:04.792Z,4.78
2023-11-08T04:06:01.773Z,4.20
2023-11-08T04:06:58.645Z,4.18
2023-11-08T04:07:55.301Z,3.55
2023-11-08T04:08:52.035Z,4.15
2023-11-08T04:09:49.340Z,3.53
2023-11-08T04:10:46.124Z,3.72
2023-11-08T04:11:42.802Z,3.78
2023-11-08T04:12:39.626Z,4.47
2023-11-08T04:13:36.359Z,3.97
2023-11-08T04:14:32.994Z,4.60
2023-11-08T04:15:31.103Z,3.88
2023-11-08T04:16:27.851Z,4.65
2023-11-08T04:17:24.951Z,3.95
2023-11-08T04:18:21.698Z,4.57
2023-11-08T04:19:18.344Z,4.72
2023-11-08T04:20:15.840Z,4.95
2023-11-08T04:21:12.528Z,4.22
2023-11-08T04:22:11.014Z,4.38
2023-11-08T04:23:07.883Z,4.53
2023-11-08T04:24:04.935Z,4.40
2023-11-08T04:25:01.542Z,5.25
2023-11-08T04:25:58.215Z,5.07
2023-11-08T04:26:54.920Z,4.13
2023-11-08T04:27:51.667Z,4.88
2023-11-08T04:28:48.368Z,5.65
2023-11-08T04:29:45.034Z,4.22
2023-11-08T04:30:41.661Z,3.92
2023-11-08T04:31:38.317Z,4.28
2023-11-08T04:32:35.114Z,4.78
2023-11-08T04:33:31.964Z,4.47
2023-11-08T04:34:29.943Z,5.07
2023-11-08T04:35:26.664Z,4.97
2023-11-08T04:36:23.375Z,4.30
2023-11-08T04:37:20.167Z,4.75
2023-11-08T04:38:16.930Z,4.75
2023-11-08T04:39:17.115Z,5.15
2023-11-08T04:40:13.940Z,3.95
2023-11-08T04:41:13.709Z,4.30
2023-11-08T04:42:10.482Z,4.70
2023-11-08T04:43:07.428Z,4.45
2023-11-08T04:44:04.441Z,4.32
2023-11-08T04:45:01.160Z,4.78
2023-11-08T04:45:57.849Z,4.63
2023-11-08T04:46:54.500Z,5.10
2023-11-08T04:47:51.258Z,4.65
2023-11-08T04:48:48.294Z,4.55
2023-11-08T04:49:49.313Z,5.10
2023-11-08T04:50:45.989Z,4.85
2023-11-08T04:51:42.928Z,4.18
2023-11-08T04:52:40.181Z,4.40
2023-11-08T04:53:36.870Z,4.10
2023-11-08T04:54:43.921Z,4.35
2023-11-08T04:55:44.622Z,4.50
2023-11-08T04:56:42.743Z,4.32
2023-11-08T04:57:39.446Z,4.93
2023-11-08T04:58:36.125Z,5.10
2023-11-08T04:59:34.113Z,4.70
2023-11-08T05:00:30.744Z,4.40
2023-11-08T05:01:29.706Z,4.65
2023-11-08T05:02:26.865Z,4.85
2023-11-08T05:03:24.020Z,4.65
2023-11-08T05:04:20.733Z,4.65
2023-11-08T05:05:17.493Z,4.35
2023-11-08T05:06:14.203Z,4.28
2023-11-08T05:07:10.969Z,3.88
2023-11-08T05:08:07.696Z,5.22
2023-11-08T05:09:04.441Z,4.68
2023-11-08T05:10:01.233Z,4.05
2023-11-08T05:10:57.987Z,4.57
2023-11-08T05:11:54.729Z,4.68
2023-11-08T05:12:52.607Z,4.40
2023-11-08T05:13:49.948Z,4.85
2023-11-08T05:14:47.183Z,3.92
2023-11-08T05:15:44.397Z,5.03
2023-11-08T05:16:41.104Z,4.40
2023-11-08T05:17:38.828Z,4.75
2023-11-08T05:18:35.698Z,4.57
2023-11-08T05:19:33.027Z,4.40
2023-11-08T05:20:30.929Z,4.45
2023-11-08T05:21:27.913Z,4.95
2023-11-08T05:22:24.964Z,4.35
2023-11-08T05:23:21.695Z,4.15
2023-11-08T05:24:18.909Z,4.03
2023-11-08T05:25:16.597Z,4.50
2023-11-08T05:26:13.402Z,4.93
2023-11-08T05:27:12.906Z,4.30
2023-11-08T05:28:09.987Z,4.50
2023-11-08T05:29:06.742Z,4.85
2023-11-08T05:30:06.060Z,4.65
2023-11-08T05:31:02.808Z,4.47
2023-11-08T05:32:00.278Z,4.65
2023-11-08T05:32:57.237Z,4.53
2023-11-08T05:33:54.276Z,4.30
2023-11-08T05:34:51.240Z,3.80
2023-11-08T05:35:47.936Z,4.50
2023-11-08T05:36:44.649Z,4.50
2023-11-08T05:37:44.113Z,4.85
2023-11-08T05:38:41.181Z,5.00
2023-11-08T05:39:37.905Z,4.57
2023-11-08T05:40:35.636Z,5.22
2023-11-08T05:41:32.463Z,4.40
2023-11-08T05:42:29.652Z,4.63
2023-11-08T05:43:27.040Z,4.13
2023-11-08T05:44:25.639Z,4.65
2023-11-08T05:45:22.915Z,5.28
2023-11-08T05:46:19.628Z,4.75
2023-11-08T05:47:16.439Z,4.85
2023-11-08T05:48:13.180Z,4.53
2023-11-08T05:49:10.249Z,4.82
2023-11-08T05:50:11.228Z,5.15
2023-11-08T05:51:07.924Z,4.63
2023-11-08T05:52:04.913Z,4.68
2023-11-08T05:53:01.778Z,4.55
2023-11-08T05:53:58.525Z,4.07
2023-11-08T05:54:55.812Z,4.68
2023-11-08T05:55:52.520Z,3.97
2023-11-08T05:56:49.416Z,5.22
2023-11-08T05:57:46.216Z,4.88
2023-11-08T05:58:42.941Z,4.68
2023-11-08T05:59:42.283Z,4.72
2023-11-08T06:00:38.976Z,4.90
2023-11-08T06:01:35.643Z,5.05
2023-11-08T06:02:32.386Z,4.35
2023-11-08T06:03:29.395Z,4.40
2023-11-08T06:04:26.389Z,4.00
2023-11-08T06:05:23.741Z,4.85
2023-11-08T06:06:21.314Z,4.78
2023-11-08T06:07:18.185Z,4.13
2023-11-08T06:08:14.863Z,4.28
2023-11-08T06:09:14.529Z,4.65
2023-11-08T06:10:13.071Z,4.05
2023-11-08T06:11:09.888Z,4.55
2023-11-08T06:12:07.412Z,5.93
2023-11-08T06:13:04.141Z,4.40
2023-11-08T06:14:00.922Z,5.20
2023-11-08T06:14:57.607Z,4.40
2023-11-08T06:15:54.384Z,4.38
2023-11-08T06:16:53.174Z,5.05
2023-11-08T06:17:53.784Z,4.30
2023-11-08T06:18:50.715Z,4.65
2023-11-08T06:19:48.737Z,4.40
2023-11-08T06:20:45.437Z,5.03
2023-11-08T06:21:42.225Z,4.28
2023-11-08T06:22:39.382Z,4.20
2023-11-08T06:23:37.102Z,221.95
2023-11-08T06:24:33.811Z,44.30
2023-11-08T06:25:31.553Z,158.95
2023-11-08T06:26:28.535Z,404.23
2023-11-08T06:27:25.224Z,86.07
2023-11-08T06:28:22.105Z,32.47
2023-11-08T06:29:18.775Z,15.48
2023-11-08T06:30:17.144Z,465.92
2023-11-08T06:31:14.678Z,156.77
2023-11-08T06:32:11.368Z,13.57
2023-11-08T06:33:09.003Z,299.95
2023-11-08T06:34:05.826Z,426.77
2023-11-08T06:35:03.856Z,502.85
2023-11-08T06:36:01.006Z,342.08
2023-11-08T06:36:58.858Z,360.73
2023-11-08T06:37:55.598Z,311.27
2023-11-08T06:38:52.362Z,312.00
2023-11-08T06:39:49.177Z,282.55
2023-11-08T06:40:45.820Z,236.77
2023-11-08T06:41:43.402Z,122.25
2023-11-08T06:42:40.092Z,66.30
2023-11-08T06:43:36.866Z,16.95
2023-11-08T06:44:34.432Z,12.00
2023-11-08T06:45:32.066Z,13.82
2023-11-08T06:46:28.664Z,15.88
2023-11-08T06:47:25.483Z,13.15
2023-11-08T06:48:22.648Z,6.55
2023-11-08T06:49:19.673Z,8.85
2023-11-08T06:50:16.640Z,8.90
2023-11-08T06:51:13.586Z,8.27
2023-11-08T06:52:10.529Z,6.20
2023-11-08T06:53:07.191Z,5.70
2023-11-08T06:54:03.999Z,4.72
2023-11-08T06:55:00.820Z,4.72
2023-11-08T06:55:59.225Z,5.40
2023-11-08T06:56:55.851Z,4.68
2023-11-08T06:57:52.599Z,6.22
2023-11-08T06:58:49.341Z,5.45
2023-11-08T06:59:46.614Z,5.22
2023-11-08T07:00:44.213Z,4.82
2023-11-08T07:01:42.605Z,5.15
2023-11-08T07:02:39.296Z,4.70
2023-11-08T07:03:36.025Z,4.32
2023-11-08T07:04:32.961Z,5.10
2023-11-08T07:05:37.958Z,4.38
2023-11-08T07:06:35.949Z,4.72
2023-11-08T07:07:34.165Z,4.57
2023-11-08T07:08:31.103Z,5.10
2023-11-08T07:09:27.778Z,5.93
2023-11-08T07:10:24.404Z,6.82
2023-11-08T07:11:21.024Z,5.10
2023-11-08T07:12:17.782Z,5.15
2023-11-08T07:13:14.427Z,5.60
2023-11-08T07:14:11.330Z,4.25
2023-11-08T07:15:08.841Z,4.15
2023-11-08T07:16:07.800Z,5.70
2023-11-08T07:17:04.843Z,4.50
2023-11-08T07:18:01.860Z,4.90
2023-11-08T07:18:58.883Z,5.28
2023-11-08T07:19:55.591Z,4.88
2023-11-08T07:20:52.318Z,4.35
2023-11-08T07:21:49.088Z,4.88
2023-11-08T07:22:45.692Z,4.63
2023-11-08T07:23:42.283Z,4.18
2023-11-08T07:24:39.046Z,4.40
2023-11-08T07:25:36.045Z,4.90
2023-11-08T07:26:32.704Z,4.57
2023-11-08T07:27:29.479Z,4.50
2023-11-08T07:28:26.142Z,5.00
2023-11-08T07:29:23.590Z,4.95
2023-11-08T07:30:20.424Z,4.75
2023-11-08T07:31:17.321Z,5.00
2023-11-08T07:32:15.745Z,4.75
2023-11-08T07:33:15.775Z,5.53
2023-11-08T07:34:15.370Z,4.22
2023-11-08T07:35:13.518Z,4.80
2023-11-08T07:36:10.282Z,4.65
2023-11-08T07:37:06.941Z,4.90
2023-11-08T07:38:03.657Z,4.90
2023-11-08T07:39:06.077Z,4.65
2023-11-08T07:41:02.660Z,4.68
2023-11-08T07:41:59.992Z,4.80
2023-11-08T07:42:57.152Z,4.05
2023-11-08T07:43:54.179Z,4.93
2023-11-08T07:44:51.486Z,5.20
2023-11-08T07:45:50.816Z,4.80
2023-11-08T07:46:47.467Z,4.93
2023-11-08T07:47:44.707Z,4.68
2023-11-08T07:48:41.613Z,5.22
2023-11-08T07:49:39.522Z,4.93
2023-11-08T07:50:36.164Z,4.47
2023-11-08T07:51:32.844Z,4.65
2023-11-08T07:52:30.044Z,5.30
2023-11-08T07:53:26.825Z,4.80
2023-11-08T07:54:23.443Z,5.47
2023-11-08T07:55:20.077Z,5.05
2023-11-08T07:56:17.004Z,4.88
2023-11-08T07:57:13.597Z,4.25
2023-11-08T07:58:10.282Z,4.72
2023-11-08T07:59:07.239Z,5.38
2023-11-08T08:00:04.386Z,4.95
2023-11-08T08:01:02.292Z,4.82
2023-11-08T08:01:58.978Z,4.60
2023-11-08T08:02:56.128Z,4.85
2023-11-08T08:03:52.849Z,4.35
2023-11-08T08:04:50.255Z,4.80
2023-11-08T08:05:47.122Z,5.15
2023-11-08T08:06:43.848Z,5.53
2023-11-08T08:07:40.894Z,5.38
2023-11-08T08:08:37.567Z,4.57
2023-11-08T08:09:34.268Z,4.97
2023-11-08T08:10:33.385Z,5.38
2023-11-08T08:11:30.096Z,5.15
2023-11-08T08:12:30.903Z,4.75
2023-11-08T08:13:33.252Z,5.25
2023-11-08T08:14:30.431Z,5.45
2023-11-08T08:15:27.164Z,5.50
2023-11-08T08:16:23.884Z,4.75
2023-11-08T08:17:20.970Z,5.13
2023-11-08T08:18:18.993Z,5.35
2023-11-08T08:19:15.820Z,5.57
2023-11-08T08:20:13.077Z,4.63
2023-11-08T08:21:09.758Z,5.70
2023-11-08T08:22:07.155Z,4.55
2023-11-08T08:23:03.974Z,5.38
2023-11-08T08:24:06.951Z,4.32
2023-11-08T08:25:04.941Z,4.95
2023-11-08T08:26:01.676Z,4.57
2023-11-08T08:26:59.243Z,5.90
2023-11-08T08:27:56.668Z,5.22
2023-11-08T08:28:53.361Z,5.22
2023-11-08T08:29:50.015Z,6.20
2023-11-08T08:30:46.838Z,5.28
2023-11-08T08:31:43.502Z,5.68
2023-11-08T08:32:42.284Z,5.68
2023-11-08T08:33:39.018Z,5.95
2023-11-08T08:34:35.778Z,5.88
2023-11-08T08:35:33.669Z,6.05
2023-11-08T08:36:33.155Z,5.30
2023-11-08T08:37:31.028Z,6.47
2023-11-08T08:38:27.848Z,6.03
2023-11-08T08:39:29.001Z,5.47
2023-11-08T08:41:23.802Z,5.15
2023-11-08T08:42:20.626Z,6.18
2023-11-08T08:43:21.457Z,5.57
2023-11-08T08:44:18.986Z,4.93
2023-11-08T08:45:15.761Z,5.50
2023-11-08T08:46:12.392Z,5.97
2023-11-08T08:47:09.095Z,5.32
2023-11-08T08:48:06.025Z,4.95
2023-11-08T08:49:02.977Z,4.97
2023-11-08T08:50:00.294Z,4.82
2023-11-08T08:50:57.036Z,5.65
2023-11-08T08:51:53.966Z,5.32
2023-11-08T08:52:50.710Z,5.07
2023-11-08T08:53:47.448Z,5.18
2023-11-08T08:54:44.212Z,5.40
2023-11-08T08:55:42.170Z,4.93
2023-11-08T08:56:41.230Z,5.90
2023-11-08T08:57:38.442Z,5.57
2023-11-08T08:58:36.756Z,5.10
2023-11-08T08:59:33.692Z,5.85
2023-11-08T09:00:31.468Z,5.20
2023-11-08T09:01:28.209Z,6.90
2023-11-08T09:02:26.619Z,5.43
2023-11-08T09:03:24.286Z,5.15
2023-11-08T09:04:21.337Z,5.55
2023-11-08T09:05:20.541Z,5.90
2023-11-08T09:06:20.730Z,5.07
2023-11-08T09:07:17.457Z,4.95
2023-11-08T09:08:14.128Z,4.82
2023-11-08T09:09:14.777Z,5.28
2023-11-08T09:10:12.065Z,5.40
2023-11-08T09:11:11.582Z,4.82
2023-11-08T09:12:09.052Z,5.45
2023-11-08T09:13:06.618Z,4.43
2023-11-08T09:14:03.995Z,5.22
2023-11-08T09:15:02.724Z,5.18
2023-11-08T09:16:01.874Z,5.72
2023-11-08T09:16:58.774Z,5.57
2023-11-08T09:17:55.518Z,4.90
2023-11-08T09:18:52.342Z,5.63
2023-11-08T09:19:49.318Z,5.30
2023-11-08T09:20:46.044Z,6.00
2023-11-08T09:21:44.177Z,5.03
2023-11-08T09:22:42.378Z,6.13
2023-11-08T09:23:39.807Z,4.95
2023-11-08T09:24:36.544Z,5.57
2023-11-08T09:25:34.779Z,5.25
2023-11-08T09:26:31.546Z,4.68
2023-11-08T09:27:28.214Z,5.13
2023-11-08T09:28:25.323Z,5.18
2023-11-08T09:29:22.089Z,4.30
2023-11-08T09:30:18.867Z,5.13
2023-11-08T09:31:17.877Z,4.47
2023-11-08T09:32:14.725Z,5.05
2023-11-08T09:33:11.707Z,5.68
2023-11-08T09:34:08.728Z,4.90
2023-11-08T09:35:06.167Z,5.60
2023-11-08T09:36:03.055Z,4.70
2023-11-08T09:37:01.647Z,4.82
2023-11-08T09:38:00.040Z,5.35
2023-11-08T09:39:07.927Z,4.60
2023-11-08T09:40:12.197Z,4.65
2023-11-08T09:41:10.152Z,5.25
2023-11-08T09:42:07.471Z,5.00
2023-11-08T09:43:06.418Z,4.93
2023-11-08T09:44:04.413Z,5.43
2023-11-08T09:45:01.636Z,5.00
2023-11-08T09:45:59.161Z,4.13
2023-11-08T09:46:56.993Z,4.88
2023-11-08T09:47:53.798Z,4.30
2023-11-08T09:48:51.663Z,5.22
2023-11-08T09:49:53.871Z,10.23
2023-11-08T09:50:52.774Z,4.88
2023-11-08T09:51:49.918Z,4.18
2023-11-08T09:52:46.631Z,5.20
2023-11-08T09:53:44.477Z,4.78
2023-11-08T09:54:43.207Z,5.70
2023-11-08T09:55:40.025Z,8.35
2023-11-08T09:56:36.778Z,8.98
2023-11-08T09:57:36.607Z,8.00
2023-11-08T09:58:33.777Z,4.63
2023-11-08T09:59:33.135Z,5.70
2023-11-08T10:00:31.849Z,5.32
2023-11-08T10:01:31.245Z,12.93
2023-11-08T10:02:29.727Z,19.48
2023-11-08T10:03:27.218Z,9.85
2023-11-08T10:04:32.124Z,5.25
2023-11-08T10:05:38.307Z,5.63
2023-11-08T10:06:36.369Z,6.93
2023-11-08T10:07:33.728Z,7.45
2023-11-08T10:08:30.618Z,8.40
2023-11-08T10:09:32.682Z,8.52
2023-11-08T10:10:30.131Z,7.22
2023-11-08T10:12:27.057Z,5.10
2023-11-08T10:13:41.809Z,5.00
2023-11-08T10:14:44.653Z,4.88
2023-11-08T10:15:41.323Z,5.70
2023-11-08T10:16:55.242Z,8.82
2023-11-08T10:19:31.788Z,6.03
2023-11-08T10:19:37.228Z,8.05
2023-11-08T10:20:36.707Z,18.02
2023-11-08T10:21:34.205Z,15.23
2023-11-08T10:22:31.288Z,31.60
2023-11-08T10:23:30.085Z,15.07
2023-11-08T10:24:26.868Z,12.40
2023-11-08T10:25:27.302Z,10.50
2023-11-08T10:26:26.739Z,11.15
2023-11-08T10:27:24.610Z,9.70
2023-11-08T10:28:22.038Z,11.73
2023-11-08T10:29:20.443Z,14.15
2023-11-08T10:30:20.265Z,12.25
2023-11-08T10:31:30.970Z,13.18
2023-11-08T10:32:27.792Z,12.43
2023-11-08T10:33:24.483Z,17.70
2023-11-08T10:34:26.240Z,14.30
2023-11-08T10:35:23.367Z,14.48
2023-11-08T10:36:31.993Z,15.45
2023-11-08T10:37:29.917Z,12.98
2023-11-08T10:38:26.540Z,18.50
2023-11-08T10:39:23.270Z,14.00
2023-11-08T10:40:22.506Z,14.88
2023-11-08T10:41:19.302Z,12.40
2023-11-08T10:42:16.113Z,13.32
2023-11-08T10:43:22.062Z,14.40
2023-11-08T10:44:26.546Z,16.02
2023-11-08T10:45:24.988Z,12.68
2023-11-08T10:46:22.556Z,12.82
2023-11-08T10:47:19.386Z,13.00
2023-11-08T10:48:16.580Z,11.93
2023-11-08T10:49:13.312Z,12.50
2023-11-08T10:50:10.264Z,13.18
2023-11-08T10:51:06.996Z,13.10
2023-11-08T10:52:05.073Z,13.13
2023-11-08T10:53:01.868Z,13.38
2023-11-08T10:53:58.791Z,13.05
2023-11-08T10:54:55.457Z,16.17
2023-11-08T10:55:56.628Z,21.40
2023-11-08T10:56:55.989Z,16.95
2023-11-08T10:58:02.410Z,21.95
2023-11-08T10:59:04.143Z,20.85
2023-11-08T11:00:02.387Z,16.13
2023-11-08T11:01:03.864Z,19.05
2023-11-08T11:02:00.689Z,16.60
2023-11-08T11:03:06.818Z,18.27
2023-11-08T11:04:07.230Z,15.10
2023-11-08T11:05:05.489Z,14.63
2023-11-08T11:06:04.820Z,14.02
2023-11-08T11:07:02.818Z,13.60
2023-11-08T11:08:01.856Z,14.90
2023-11-08T11:08:59.508Z,15.32
2023-11-08T11:09:56.454Z,14.55
2023-11-08T11:10:53.328Z,13.52
2023-11-08T11:12:00.205Z,12.98
2023-11-08T11:13:06.300Z,14.43
2023-11-08T11:14:14.699Z,13.27
2023-11-08T11:15:21.371Z,17.98
2023-11-08T11:16:31.491Z,13.80
2023-11-08T11:18:41.023Z,15.70
2023-11-08T11:19:42.812Z,27.55
2023-11-08T11:20:45.989Z,16.27
2023-11-08T11:21:50.291Z,15.13
2023-11-08T11:22:47.033Z,13.00
2023-11-08T11:23:43.698Z,12.65
2023-11-08T11:24:43.569Z,13.27
2023-11-08T11:25:48.733Z,11.65
2023-11-08T11:26:47.479Z,11.07
2023-11-08T11:27:45.546Z,10.65
2023-11-08T11:28:56.481Z,12.00
2023-11-08T11:30:16.318Z,10.15
2023-11-08T11:31:44.618Z,8.80
2023-11-08T11:32:51.169Z,7.13
2023-11-08T11:33:48.041Z,6.38
2023-11-08T11:34:45.478Z,5.28
2023-11-08T11:35:51.455Z,6.50
2023-11-08T11:37:14.881Z,6.15
2023-11-08T11:39:24.042Z,5.20
2023-11-08T11:40:20.771Z,5.85
2023-11-08T11:41:24.324Z,6.07
2023-11-08T11:42:27.317Z,5.78
2023-11-08T11:43:39.717Z,5.18
2023-11-08T11:44:37.823Z,5.13
2023-11-08T11:45:34.571Z,6.72
2023-11-08T11:46:31.406Z,6.30
2023-11-08T11:47:30.347Z,11.40
2023-11-08T11:48:33.452Z,6.30
2023-11-08T11:49:30.242Z,7.13
2023-11-08T11:50:28.456Z,6.82
2023-11-08T11:51:25.177Z,6.60
2023-11-08T11:52:23.445Z,5.45
2023-11-08T11:53:20.119Z,4.40
2023-11-08T11:54:17.084Z,3.50
2023-11-08T11:55:16.086Z,2.85
2023-11-08T11:56:12.745Z,3.13
2023-11-08T11:57:10.368Z,2.28
2023-11-08T11:58:11.051Z,2.67
2023-11-08T11:59:10.200Z,1.95
2023-11-08T12:00:11.002Z,1.90
2023-11-08T12:01:07.910Z,2.75
2023-11-08T12:02:04.988Z,2.22
2023-11-08T12:03:02.008Z,2.00
2023-11-08T12:04:00.425Z,1.63
2023-11-08T12:05:00.361Z,2.10
2023-11-08T12:05:57.906Z,1.80
2023-11-08T12:06:56.431Z,2.00
2023-11-08T12:07:54.092Z,1.95
2023-11-08T12:08:50.869Z,1.80
2023-11-08T12:09:49.637Z,1.70
2023-11-08T12:10:46.435Z,1.83
2023-11-08T12:11:49.548Z,1.75
2023-11-08T12:12:46.418Z,1.80
2023-11-08T12:13:54.510Z,1.90
2023-11-08T12:14:51.231Z,1.80
2023-11-08T12:16:00.707Z,1.90
2023-11-08T12:16:57.564Z,1.83
2023-11-08T12:17:55.226Z,1.85
2023-11-08T12:18:53.022Z,1.80
2023-11-08T12:19:50.482Z,1.77
2023-11-08T12:20:47.351Z,1.63
2023-11-08T12:21:48.640Z,1.70
2023-11-08T12:22:49.563Z,1.90
2023-11-08T12:23:50.648Z,2.08
2023-11-08T12:24:50.441Z,1.88
2023-11-08T12:25:48.097Z,1.90
2023-11-08T12:26:44.884Z,1.70
2023-11-08T12:27:41.833Z,1.70
2023-11-08T12:28:39.511Z,1.77
2023-11-08T12:29:36.600Z,2.05
2023-11-08T12:30:34.979Z,1.65
2023-11-08T12:31:31.770Z,1.85
2023-11-08T12:32:28.632Z,1.73
2023-11-08T12:33:28.105Z,2.00
2023-11-08T12:34:28.416Z,1.77
2023-11-08T12:35:25.968Z,1.88
2023-11-08T12:36:22.772Z,1.70
2023-11-08T12:37:21.220Z,2.10
2023-11-08T12:38:18.839Z,1.73
2023-11-08T12:39:19.979Z,1.98
2023-11-08T12:40:20.766Z,2.25
2023-11-08T12:41:19.131Z,1.98
2023-11-08T12:42:17.014Z,1.92
2023-11-08T12:43:56.942Z,1.90
2023-11-08T12:44:48.265Z,1.88
2023-11-08T12:46:35.356Z,2.13
2023-11-08T12:47:08.211Z,1.80
2023-11-08T12:48:10.794Z,2.08
2023-11-08T12:50:14.883Z,2.38
2023-11-08T12:51:13.148Z,2.17
2023-11-08T12:52:13.069Z,1.90
2023-11-08T12:53:09.778Z,1.80
2023-11-08T12:54:07.444Z,2.20
2023-11-08T12:55:04.538Z,13.25
2023-11-08T12:56:04.174Z,3.20
2023-11-08T12:57:01.673Z,8.98
2023-11-08T12:58:24.807Z,6.93